createdAt,value
2023-05-28T00:03:53.793Z,13.57
2023-05-28T00:08:55.474Z,14.93
2023-05-28T00:13:56.961Z,12.63
2023-05-28T00:18:58.405Z,15.02
2023-05-28T00:24:01.155Z,13.35
2023-05-28T00:29:02.874Z,18.08
2023-05-28T00:34:04.324Z,13.32
2023-05-28T00:39:06.068Z,10.38
2023-05-28T00:44:07.794Z,19.60
2023-05-28T00:49:11.386Z,10.48
2023-05-28T00:54:12.828Z,15.00
2023-05-28T00:59:14.374Z,12.93
2023-05-28T01:04:17.013Z,11.05
2023-05-28T01:09:18.813Z,15.00
2023-05-28T01:14:21.402Z,14.23
2023-05-28T01:19:23.905Z,12.05
2023-05-28T01:24:26.267Z,14.30
2023-05-28T01:29:27.903Z,15.90
2023-05-28T01:34:29.792Z,16.20
2023-05-28T01:39:36.053Z,11.25
2023-05-28T01:44:38.316Z,10.90
2023-05-28T01:49:40.315Z,11.43
2023-05-28T01:54:41.969Z,14.55
2023-05-28T01:59:43.760Z,11.75
2023-05-28T02:04:45.350Z,14.02
2023-05-28T02:09:47.038Z,12.70
2023-05-28T02:14:50.085Z,12.38
2023-05-28T02:19:51.646Z,14.40
2023-05-28T02:24:53.167Z,12.88
2023-05-28T02:29:55.188Z,13.70
2023-05-28T02:34:56.668Z,13.93
2023-05-28T02:39:58.329Z,13.70
2023-05-28T02:45:00.171Z,11.75
2023-05-28T02:50:02.412Z,13.55
2023-05-28T02:55:04.228Z,13.55
2023-05-28T03:00:06.402Z,12.30
2023-05-28T03:05:08.096Z,14.93
2023-05-28T03:10:10.136Z,10.80
2023-05-28T03:15:11.847Z,12.52
2023-05-28T03:20:13.615Z,10.68
2023-05-28T03:25:15.367Z,12.75
2023-05-28T03:30:16.829Z,11.23
2023-05-28T03:35:18.399Z,11.52
2023-05-28T03:40:19.825Z,12.48
2023-05-28T03:45:22.664Z,11.93
2023-05-28T03:50:24.781Z,15.55
2023-05-28T03:55:29.161Z,13.40
2023-05-28T04:00:30.649Z,12.10
2023-05-28T04:05:32.191Z,13.02
2023-05-28T04:10:33.658Z,11.23
2023-05-28T04:15:35.298Z,11.55
2023-05-28T04:20:36.985Z,11.15
2023-05-28T04:25:38.577Z,11.70
2023-05-28T04:30:40.042Z,13.98
2023-05-28T04:35:41.639Z,13.43
2023-05-28T04:40:43.291Z,12.07
2023-05-28T04:45:44.784Z,12.18
2023-05-28T04:50:46.493Z,15.75
2023-05-28T04:55:48.013Z,14.98
2023-05-28T05:00:49.692Z,11.55
2023-05-28T05:05:51.244Z,11.80
2023-05-28T05:10:52.881Z,13.93
2023-05-28T05:15:54.548Z,9.90
2023-05-28T05:20:56.283Z,12.32
2023-05-28T05:25:57.789Z,14.05
2023-05-28T05:30:59.503Z,14.70
2023-05-28T05:36:10.077Z,11.73
2023-05-28T05:41:11.798Z,10.85
2023-05-28T05:46:13.943Z,13.27
2023-05-28T05:51:15.813Z,13.05
2023-05-28T05:57:30.054Z,9.43
2023-05-28T06:02:19.851Z,12.00
2023-05-28T06:07:23.335Z,11.77
2023-05-28T06:12:40.521Z,12.20
2023-05-28T06:17:56.478Z,11.93
2023-05-28T06:22:58.130Z,13.88
2023-05-28T06:33:36.518Z,15.57
2023-05-28T06:38:38.157Z,15.90
2023-05-28T06:43:39.607Z,17.13
2023-05-28T06:48:41.546Z,14.45
2023-05-28T06:53:43.329Z,13.75
2023-05-28T06:58:44.976Z,14.30
2023-05-28T07:03:46.838Z,15.05
2023-05-28T07:08:48.488Z,13.77
2023-05-28T07:13:50.002Z,13.05
2023-05-28T07:18:51.639Z,12.75
2023-05-28T07:25:02.312Z,12.05
2023-05-28T07:30:15.085Z,12.15
2023-05-28T07:41:21.647Z,13.05
2023-05-28T07:46:34.824Z,10.02
2023-05-28T07:51:42.603Z,11.32
2023-05-28T07:56:44.543Z,10.75
2023-05-28T08:01:46.170Z,10.25
2023-05-28T08:06:48.348Z,11.77
2023-05-28T08:11:50.632Z,12.57
2023-05-28T08:16:52.379Z,10.70
2023-05-28T08:21:54.789Z,11.75
2023-05-28T08:26:56.448Z,8.55
2023-05-28T08:31:58.080Z,8.73
2023-05-28T08:37:00.056Z,8.38
2023-05-28T08:42:01.969Z,7.70
2023-05-28T08:47:10.110Z,7.95
2023-05-28T08:57:16.766Z,10.07
2023-05-28T09:02:18.685Z,8.15
2023-05-28T09:07:20.283Z,9.32
2023-05-28T09:12:23.209Z,9.65
2023-05-28T09:17:37.919Z,7.93
2023-05-28T09:22:40.072Z,9.10
2023-05-28T09:27:44.547Z,10.60
2023-05-28T09:32:46.347Z,8.75
2023-05-28T09:37:59.712Z,10.48
2023-05-28T09:43:10.239Z,9.52
2023-05-28T09:48:13.218Z,10.18
2023-05-28T09:53:16.392Z,7.82
2023-05-28T09:58:22.252Z,9.13
2023-05-28T10:03:29.504Z,8.10
2023-05-28T10:08:37.258Z,10.15
2023-05-28T10:13:39.088Z,6.78
2023-05-28T10:18:56.806Z,7.15
2023-05-28T10:24:10.555Z,7.43
2023-05-28T10:29:12.331Z,8.27
2023-05-28T10:34:17.886Z,7.65
2023-05-28T10:39:19.965Z,7.85
2023-05-28T10:44:25.090Z,7.53
2023-05-28T10:49:26.739Z,6.63
2023-05-28T10:54:30.967Z,8.43
2023-05-28T10:59:48.955Z,7.65
2023-05-28T11:05:01.123Z,7.90
2023-05-28T11:10:05.283Z,8.45
2023-05-28T11:15:09.704Z,9.27
2023-05-28T11:20:25.673Z,8.70
2023-05-28T11:25:27.529Z,6.17
2023-05-28T11:30:29.695Z,6.93
2023-05-28T11:35:31.217Z,7.28
2023-05-28T11:40:36.745Z,7.68
2023-05-28T11:45:41.371Z,7.63
2023-05-28T11:50:49.216Z,6.25
2023-05-28T12:01:22.387Z,7.22
2023-05-28T12:06:32.555Z,7.68
2023-05-28T12:11:41.914Z,7.75
2023-05-28T12:16:45.419Z,7.47
2023-05-28T12:21:47.903Z,7.38
2023-05-28T12:26:49.698Z,8.40
2023-05-28T12:32:00.552Z,7.50
2023-05-28T12:37:02.083Z,7.82
2023-05-28T12:42:04.272Z,7.22
2023-05-28T12:47:06.043Z,7.45
2023-05-28T12:52:07.617Z,8.85
2023-05-28T12:57:09.558Z,6.68
2023-05-28T13:02:11.419Z,9.45
2023-05-28T13:07:13.026Z,7.00
2023-05-28T13:12:14.739Z,7.65
2023-05-28T13:17:16.457Z,10.50
2023-05-28T13:22:18.237Z,9.02
2023-05-28T13:27:19.975Z,7.40
2023-05-28T13:32:22.278Z,8.60
2023-05-28T13:37:24.057Z,9.25
2023-05-28T13:42:25.764Z,8.35
2023-05-28T13:47:27.385Z,7.72
2023-05-28T13:52:29.201Z,7.35
2023-05-28T13:57:30.696Z,9.07
2023-05-28T14:02:32.279Z,8.65
2023-05-28T14:07:34.236Z,6.75
2023-05-28T14:12:36.287Z,7.63
2023-05-28T14:17:40.376Z,7.65
2023-05-28T14:22:48.453Z,8.45
2023-05-28T14:27:59.780Z,7.32
2023-05-28T14:33:12.097Z,7.68
2023-05-28T14:38:13.616Z,7.68
2023-05-28T14:43:17.571Z,9.45
2023-05-28T14:48:20.435Z,8.02
2023-05-28T15:15:22.778Z,8.45
2023-05-28T15:21:14.031Z,7.90
2023-05-28T15:32:17.578Z,7.70
2023-05-28T15:34:35.594Z,6.43
2023-05-28T15:40:52.585Z,6.80
2023-05-28T15:55:28.778Z,7.38
2023-05-28T15:55:46.693Z,6.70
2023-05-28T15:56:13.833Z,9.90
2023-05-28T16:00:35.701Z,7.75
2023-05-28T16:05:37.818Z,7.85
2023-05-28T16:10:40.069Z,7.93
2023-05-28T16:15:42.091Z,6.90
2023-05-28T16:20:47.363Z,7.32
2023-05-28T16:25:54.560Z,11.77
2023-05-28T16:30:58.199Z,7.57
2023-05-28T16:36:05.108Z,8.38
2023-05-28T16:41:12.789Z,7.28
2023-05-28T16:46:21.183Z,7.82
2023-05-28T16:51:38.134Z,7.32
2023-05-28T16:56:42.436Z,7.07
2023-05-28T17:07:19.319Z,8.15
2023-05-28T17:13:02.414Z,6.05
2023-05-28T17:18:02.122Z,7.60
2023-05-28T17:23:08.354Z,7.97
2023-05-28T17:28:10.471Z,8.98
2023-05-28T17:33:12.228Z,9.15
2023-05-28T17:38:21.644Z,7.75
2023-05-28T17:43:48.506Z,8.05
2023-05-28T17:48:50.509Z,6.60
2023-05-28T17:55:17.533Z,7.35
2023-05-28T18:05:18.595Z,7.78
2023-05-28T18:10:21.114Z,7.72
2023-05-28T18:15:32.717Z,7.82
2023-05-28T18:20:34.970Z,7.70
2023-05-28T18:25:37.080Z,7.75
2023-05-28T18:30:42.521Z,9.40
2023-05-28T18:36:11.664Z,10.00
2023-05-28T18:41:14.133Z,9.15
2023-05-28T18:46:15.851Z,9.27
2023-05-28T18:51:22.868Z,9.15
2023-05-28T18:56:26.686Z,7.68
2023-05-28T19:01:38.946Z,9.35
2023-05-28T19:07:01.157Z,12.18
2023-05-28T19:12:05.936Z,7.90
2023-05-28T19:17:07.512Z,10.68
2023-05-28T19:22:09.288Z,7.97
2023-05-28T19:27:10.883Z,7.07
2023-05-28T19:32:12.551Z,11.80
2023-05-28T19:37:15.354Z,9.52
2023-05-28T19:42:17.172Z,7.32
2023-05-28T19:47:22.075Z,8.35
2023-05-28T19:52:23.697Z,9.13
2023-05-28T19:57:27.504Z,8.82
2023-05-28T20:02:29.177Z,10.35
2023-05-28T20:07:33.946Z,10.80
2023-05-28T20:12:35.757Z,7.57
2023-05-28T20:17:37.662Z,9.75
2023-05-28T20:22:45.452Z,11.80
2023-05-28T20:27:47.620Z,8.80
2023-05-28T20:32:49.314Z,8.57
2023-05-28T20:37:51.612Z,8.90
2023-05-28T20:42:53.294Z,8.65
2023-05-28T20:47:54.912Z,10.20
2023-05-28T20:52:58.466Z,8.43
2023-05-28T20:58:00.820Z,8.02
2023-05-28T21:03:02.579Z,8.40
2023-05-28T21:08:04.890Z,10.27
2023-05-28T21:13:10.120Z,10.35
2023-05-28T21:18:11.697Z,9.65
2023-05-28T21:23:13.596Z,10.55
2023-05-28T21:28:15.314Z,9.48
2023-05-28T21:33:16.778Z,9.70
2023-05-28T21:38:18.399Z,11.27
2023-05-28T21:43:21.314Z,10.43
2023-05-28T21:48:26.290Z,9.88
2023-05-28T21:53:28.344Z,10.52
2023-05-28T21:58:30.244Z,9.40
2023-05-28T22:03:32.261Z,10.55
2023-05-28T22:08:34.938Z,8.95
2023-05-28T22:13:36.616Z,10.30
2023-05-28T22:18:42.516Z,9.77
2023-05-28T22:23:44.324Z,9.02
2023-05-28T22:28:57.814Z,8.02
2023-05-28T22:34:04.506Z,10.55
2023-05-28T22:39:06.048Z,12.32
2023-05-28T22:44:07.942Z,8.93
2023-05-28T22:49:09.642Z,9.60
2023-05-28T22:54:16.598Z,10.63
2023-05-28T22:59:18.254Z,8.18
2023-05-28T23:04:19.900Z,9.00
2023-05-28T23:09:21.799Z,11.13
2023-05-28T23:14:23.465Z,9.05
2023-05-28T23:19:25.163Z,8.85
2023-05-28T23:24:26.771Z,10.43
2023-05-28T23:29:28.602Z,8.43
2023-05-28T23:34:30.110Z,12.50
2023-05-28T23:39:31.729Z,7.60
2023-05-28T23:44:33.218Z,12.35
2023-05-28T23:49:34.856Z,8.27
2023-05-28T23:54:39.713Z,8.30
2023-05-28T23:59:41.301Z,8.57
